sensor_id;sensor_type;location;lat;lon;timestamp;P1;durP1;ratioP1;P2;durP2;ratioP2
60018;SDS011;45870;42.528;26.740;2023-07-31T00:00:24;4.80;;;3.80;;
60018;SDS011;45870;42.528;26.740;2023-07-31T00:02:51;7.55;;;4.40;;
60018;SDS011;45870;42.528;26.740;2023-07-31T00:05:17;5.40;;;4.07;;
60018;SDS011;45870;42.528;26.740;2023-07-31T00:07:42;4.55;;;3.83;;
60018;SDS011;45870;42.528;26.740;2023-07-31T00:10:08;7.65;;;4.00;;
60018;SDS011;45870;42.528;26.740;2023-07-31T00:12:34;4.40;;;3.58;;
60018;SDS011;45870;42.528;26.740;2023-07-31T00:15:00;7.00;;;4.68;;
60018;SDS011;45870;42.528;26.740;2023-07-31T00:17:26;6.38;;;4.20;;
60018;SDS011;45870;42.528;26.740;2023-07-31T00:19:51;7.85;;;4.15;;
60018;SDS011;45870;42.528;26.740;2023-07-31T00:22:17;7.82;;;4.53;;
60018;SDS011;45870;42.528;26.740;2023-07-31T00:24:43;5.45;;;4.47;;
60018;SDS011;45870;42.528;26.740;2023-07-31T00:27:08;6.82;;;4.60;;
60018;SDS011;45870;42.528;26.740;2023-07-31T00:29:34;4.32;;;3.92;;
60018;SDS011;45870;42.528;26.740;2023-07-31T00:31:59;5.18;;;3.80;;
60018;SDS011;45870;42.528;26.740;2023-07-31T00:34:26;4.88;;;3.83;;
60018;SDS011;45870;42.528;26.740;2023-07-31T00:36:51;6.32;;;3.75;;
60018;SDS011;45870;42.528;26.740;2023-07-31T00:39:17;5.85;;;4.30;;
60018;SDS011;45870;42.528;26.740;2023-07-31T00:41:42;8.40;;;5.05;;
60018;SDS011;45870;42.528;26.740;2023-07-31T00:44:08;7.75;;;5.35;;
60018;SDS011;45870;42.528;26.740;2023-07-31T00:46:34;6.40;;;4.60;;
60018;SDS011;45870;42.528;26.740;2023-07-31T00:48:59;7.03;;;3.70;;
60018;SDS011;45870;42.528;26.740;2023-07-31T00:51:25;6.57;;;4.15;;
60018;SDS011;45870;42.528;26.740;2023-07-31T00:53:51;9.30;;;4.28;;
60018;SDS011;45870;42.528;26.740;2023-07-31T00:56:19;7.97;;;4.07;;
60018;SDS011;45870;42.528;26.740;2023-07-31T00:58:45;4.93;;;3.88;;
60018;SDS011;45870;42.528;26.740;2023-07-31T01:01:10;6.88;;;3.88;;
60018;SDS011;45870;42.528;26.740;2023-07-31T01:03:36;6.63;;;3.78;;
60018;SDS011;45870;42.528;26.740;2023-07-31T01:09:02;9.52;;;3.80;;
60018;SDS011;45870;42.528;26.740;2023-07-31T01:11:34;6.13;;;4.07;;
60018;SDS011;45870;42.528;26.740;2023-07-31T01:14:03;3.95;;;3.47;;
60018;SDS011;45870;42.528;26.740;2023-07-31T01:16:29;4.40;;;3.67;;
60018;SDS011;45870;42.528;26.740;2023-07-31T01:18:55;6.13;;;3.30;;
60018;SDS011;45870;42.528;26.740;2023-07-31T01:24:19;4.10;;;3.60;;
60018;SDS011;45870;42.528;26.740;2023-07-31T01:26:49;5.55;;;3.92;;
60018;SDS011;45870;42.528;26.740;2023-07-31T01:29:23;5.45;;;3.90;;
60018;SDS011;45870;42.528;26.740;2023-07-31T01:31:56;7.45;;;4.60;;
60018;SDS011;45870;42.528;26.740;2023-07-31T01:34:26;6.10;;;4.20;;
60018;SDS011;45870;42.528;26.740;2023-07-31T01:36:54;5.30;;;3.95;;
60018;SDS011;45870;42.528;26.740;2023-07-31T01:39:22;8.23;;;4.10;;
60018;SDS011;45870;42.528;26.740;2023-07-31T01:41:47;7.55;;;3.72;;
60018;SDS011;45870;42.528;26.740;2023-07-31T01:44:13;7.75;;;3.92;;
60018;SDS011;45870;42.528;26.740;2023-07-31T01:46:38;5.28;;;4.07;;
60018;SDS011;45870;42.528;26.740;2023-07-31T01:49:05;5.15;;;3.95;;
60018;SDS011;45870;42.528;26.740;2023-07-31T01:51:31;5.60;;;3.97;;
60018;SDS011;45870;42.528;26.740;2023-07-31T01:54:00;7.88;;;4.13;;
60018;SDS011;45870;42.528;26.740;2023-07-31T01:56:26;7.80;;;4.68;;
60018;SDS011;45870;42.528;26.740;2023-07-31T01:58:52;5.68;;;4.10;;
60018;SDS011;45870;42.528;26.740;2023-07-31T02:01:18;6.75;;;4.32;;
60018;SDS011;45870;42.528;26.740;2023-07-31T02:03:43;6.68;;;4.38;;
60018;SDS011;45870;42.528;26.740;2023-07-31T02:06:09;6.35;;;3.70;;
60018;SDS011;45870;42.528;26.740;2023-07-31T02:08:34;5.55;;;3.88;;
60018;SDS011;45870;42.528;26.740;2023-07-31T02:11:00;6.25;;;4.22;;
60018;SDS011;45870;42.528;26.740;2023-07-31T02:13:26;7.28;;;4.50;;
60018;SDS011;45870;42.528;26.740;2023-07-31T02:15:51;5.38;;;4.75;;
60018;SDS011;45870;42.528;26.740;2023-07-31T02:18:17;7.07;;;4.90;;
60018;SDS011;45870;42.528;26.740;2023-07-31T02:20:51;7.03;;;5.43;;
60018;SDS011;45870;42.528;26.740;2023-07-31T02:23:17;9.13;;;5.07;;
60018;SDS011;45870;42.528;26.740;2023-07-31T02:25:44;9.00;;;5.28;;
60018;SDS011;45870;42.528;26.740;2023-07-31T02:28:10;7.07;;;5.00;;
60018;SDS011;45870;42.528;26.740;2023-07-31T02:30:36;6.53;;;4.90;;
60018;SDS011;45870;42.528;26.740;2023-07-31T02:33:01;6.72;;;5.40;;
60018;SDS011;45870;42.528;26.740;2023-07-31T02:35:27;9.43;;;4.97;;
60018;SDS011;45870;42.528;26.740;2023-07-31T02:37:53;6.25;;;4.95;;
60018;SDS011;45870;42.528;26.740;2023-07-31T02:40:18;6.68;;;5.65;;
60018;SDS011;45870;42.528;26.740;2023-07-31T02:42:44;7.13;;;5.07;;
60018;SDS011;45870;42.528;26.740;2023-07-31T02:45:10;7.00;;;5.43;;
60018;SDS011;45870;42.528;26.740;2023-07-31T02:47:35;8.90;;;4.72;;
60018;SDS011;45870;42.528;26.740;2023-07-31T02:50:02;5.13;;;4.60;;
60018;SDS011;45870;42.528;26.740;2023-07-31T02:52:28;8.23;;;4.18;;
60018;SDS011;45870;42.528;26.740;2023-07-31T02:54:54;6.13;;;3.95;;
60018;SDS011;45870;42.528;26.740;2023-07-31T02:57:19;7.68;;;4.40;;
60018;SDS011;45870;42.528;26.740;2023-07-31T02:59:45;6.50;;;4.18;;
60018;SDS011;45870;42.528;26.740;2023-07-31T03:02:11;5.75;;;3.90;;
60018;SDS011;45870;42.528;26.740;2023-07-31T03:04:38;7.55;;;3.72;;
60018;SDS011;45870;42.528;26.740;2023-07-31T03:07:04;3.90;;;3.25;;
60018;SDS011;45870;42.528;26.740;2023-07-31T03:09:30;5.78;;;3.85;;
60018;SDS011;45870;42.528;26.740;2023-07-31T03:11:55;5.95;;;3.47;;
60018;SDS011;45870;42.528;26.740;2023-07-31T03:14:21;5.13;;;3.35;;
60018;SDS011;45870;42.528;26.740;2023-07-31T03:16:47;4.95;;;3.33;;
60018;SDS011;45870;42.528;26.740;2023-07-31T03:19:13;4.75;;;2.90;;
60018;SDS011;45870;42.528;26.740;2023-07-31T03:21:38;4.85;;;3.22;;
60018;SDS011;45870;42.528;26.740;2023-07-31T03:24:04;5.22;;;3.10;;
60018;SDS011;45870;42.528;26.740;2023-07-31T03:26:31;5.68;;;3.42;;
60018;SDS011;45870;42.528;26.740;2023-07-31T03:28:57;4.28;;;3.40;;
60018;SDS011;45870;42.528;26.740;2023-07-31T03:31:22;5.65;;;3.22;;
60018;SDS011;45870;42.528;26.740;2023-07-31T03:33:48;7.68;;;3.70;;
60018;SDS011;45870;42.528;26.740;2023-07-31T03:36:14;5.65;;;3.60;;
60018;SDS011;45870;42.528;26.740;2023-07-31T03:38:39;7.35;;;3.78;;
60018;SDS011;45870;42.528;26.740;2023-07-31T03:41:05;5.65;;;3.65;;
60018;SDS011;45870;42.528;26.740;2023-07-31T03:43:31;4.78;;;3.97;;
60018;SDS011;45870;42.528;26.740;2023-07-31T03:45:59;6.05;;;3.65;;
60018;SDS011;45870;42.528;26.740;2023-07-31T03:48:25;6.22;;;3.67;;
60018;SDS011;45870;42.528;26.740;2023-07-31T03:50:51;5.88;;;3.90;;
60018;SDS011;45870;42.528;26.740;2023-07-31T03:53:17;5.72;;;3.70;;
60018;SDS011;45870;42.528;26.740;2023-07-31T03:55:42;3.92;;;3.58;;
60018;SDS011;45870;42.528;26.740;2023-07-31T03:58:08;4.50;;;3.55;;
60018;SDS011;45870;42.528;26.740;2023-07-31T04:00:34;4.63;;;3.75;;
60018;SDS011;45870;42.528;26.740;2023-07-31T04:02:59;5.25;;;3.55;;
60018;SDS011;45870;42.528;26.740;2023-07-31T04:05:25;6.05;;;3.70;;
60018;SDS011;45870;42.528;26.740;2023-07-31T04:07:51;3.90;;;3.47;;
60018;SDS011;45870;42.528;26.740;2023-07-31T04:10:16;6.40;;;3.40;;
60018;SDS011;45870;42.528;26.740;2023-07-31T04:12:44;4.10;;;3.15;;
60018;SDS011;45870;42.528;26.740;2023-07-31T04:15:10;3.35;;;3.00;;
60018;SDS011;45870;42.528;26.740;2023-07-31T04:17:36;4.13;;;2.92;;
60018;SDS011;45870;42.528;26.740;2023-07-31T04:20:01;6.43;;;2.97;;
60018;SDS011;45870;42.528;26.740;2023-07-31T04:22:27;3.55;;;2.83;;
60018;SDS011;45870;42.528;26.740;2023-07-31T04:24:53;3.53;;;2.83;;
60018;SDS011;45870;42.528;26.740;2023-07-31T04:27:19;4.82;;;2.55;;
60018;SDS011;45870;42.528;26.740;2023-07-31T04:29:44;3.15;;;2.80;;
60018;SDS011;45870;42.528;26.740;2023-07-31T04:32:12;2.78;;;2.58;;
60018;SDS011;45870;42.528;26.740;2023-07-31T04:34:37;7.00;;;2.90;;
60018;SDS011;45870;42.528;26.740;2023-07-31T04:37:03;4.63;;;2.60;;
60018;SDS011;45870;42.528;26.740;2023-07-31T04:39:29;3.92;;;2.80;;
60018;SDS011;45870;42.528;26.740;2023-07-31T04:41:54;3.22;;;2.75;;
60018;SDS011;45870;42.528;26.740;2023-07-31T04:44:20;4.22;;;2.90;;
60018;SDS011;45870;42.528;26.740;2023-07-31T04:46:45;4.32;;;2.63;;
60018;SDS011;45870;42.528;26.740;2023-07-31T04:49:11;4.03;;;2.45;;
60018;SDS011;45870;42.528;26.740;2023-07-31T04:51:37;4.20;;;2.90;;
60018;SDS011;45870;42.528;26.740;2023-07-31T04:54:03;3.05;;;2.72;;
60018;SDS011;45870;42.528;26.740;2023-07-31T04:56:28;4.85;;;3.25;;
60018;SDS011;45870;42.528;26.740;2023-07-31T04:58:54;6.28;;;3.20;;
60018;SDS011;45870;42.528;26.740;2023-07-31T05:01:20;4.93;;;3.30;;
60018;SDS011;45870;42.528;26.740;2023-07-31T05:03:46;4.22;;;3.38;;
60018;SDS011;45870;42.528;26.740;2023-07-31T05:06:11;4.75;;;3.47;;
60018;SDS011;45870;42.528;26.740;2023-07-31T05:08:41;3.95;;;2.97;;
60018;SDS011;45870;42.528;26.740;2023-07-31T05:11:08;4.50;;;3.17;;
60018;SDS011;45870;42.528;26.740;2023-07-31T05:13:34;4.10;;;2.72;;
60018;SDS011;45870;42.528;26.740;2023-07-31T05:15:59;4.32;;;2.63;;
60018;SDS011;45870;42.528;26.740;2023-07-31T05:18:25;6.32;;;2.88;;
60018;SDS011;45870;42.528;26.740;2023-07-31T05:20:50;3.97;;;2.60;;
60018;SDS011;45870;42.528;26.740;2023-07-31T05:23:16;4.70;;;2.80;;
60018;SDS011;45870;42.528;26.740;2023-07-31T05:25:42;7.80;;;2.83;;
60018;SDS011;45870;42.528;26.740;2023-07-31T05:28:07;5.03;;;2.55;;
60018;SDS011;45870;42.528;26.740;2023-07-31T05:30:33;4.53;;;2.70;;
60018;SDS011;45870;42.528;26.740;2023-07-31T05:32:59;3.90;;;2.40;;
60018;SDS011;45870;42.528;26.740;2023-07-31T05:35:24;4.80;;;2.53;;
60018;SDS011;45870;42.528;26.740;2023-07-31T05:37:50;4.25;;;2.42;;
60018;SDS011;45870;42.528;26.740;2023-07-31T05:40:15;5.80;;;2.60;;
60018;SDS011;45870;42.528;26.740;2023-07-31T05:42:41;3.60;;;2.60;;
60018;SDS011;45870;42.528;26.740;2023-07-31T05:45:07;2.60;;;2.40;;
60018;SDS011;45870;42.528;26.740;2023-07-31T05:47:33;3.17;;;2.50;;
60018;SDS011;45870;42.528;26.740;2023-07-31T05:49:59;3.00;;;2.28;;
60018;SDS011;45870;42.528;26.740;2023-07-31T05:52:25;3.58;;;2.60;;
60018;SDS011;45870;42.528;26.740;2023-07-31T05:54:51;3.30;;;2.58;;
60018;SDS011;45870;42.528;26.740;2023-07-31T05:57:16;2.92;;;2.53;;
60018;SDS011;45870;42.528;26.740;2023-07-31T05:59:42;3.03;;;2.63;;
60018;SDS011;45870;42.528;26.740;2023-07-31T06:02:08;3.90;;;2.45;;
60018;SDS011;45870;42.528;26.740;2023-07-31T06:04:33;3.15;;;2.78;;
60018;SDS011;45870;42.528;26.740;2023-07-31T06:07:00;4.80;;;2.60;;
60018;SDS011;45870;42.528;26.740;2023-07-31T06:09:25;4.38;;;2.65;;
60018;SDS011;45870;42.528;26.740;2023-07-31T06:11:51;3.45;;;2.60;;
60018;SDS011;45870;42.528;26.740;2023-07-31T06:14:17;3.35;;;2.80;;
60018;SDS011;45870;42.528;26.740;2023-07-31T06:16:43;3.33;;;2.50;;
60018;SDS011;45870;42.528;26.740;2023-07-31T06:19:09;2.90;;;2.50;;
60018;SDS011;45870;42.528;26.740;2023-07-31T06:21:35;4.32;;;2.75;;
60018;SDS011;45870;42.528;26.740;2023-07-31T06:24:04;4.53;;;2.53;;
60018;SDS011;45870;42.528;26.740;2023-07-31T06:26:30;5.90;;;2.97;;
60018;SDS011;45870;42.528;26.740;2023-07-31T06:28:57;4.57;;;3.08;;
60018;SDS011;45870;42.528;26.740;2023-07-31T06:31:22;4.22;;;3.10;;
60018;SDS011;45870;42.528;26.740;2023-07-31T06:33:51;4.47;;;3.05;;
60018;SDS011;45870;42.528;26.740;2023-07-31T06:36:20;5.20;;;3.10;;
60018;SDS011;45870;42.528;26.740;2023-07-31T06:38:46;5.25;;;3.40;;
60018;SDS011;45870;42.528;26.740;2023-07-31T06:41:12;4.40;;;3.33;;
60018;SDS011;45870;42.528;26.740;2023-07-31T06:43:38;6.07;;;3.40;;
60018;SDS011;45870;42.528;26.740;2023-07-31T06:46:06;4.03;;;3.45;;
60018;SDS011;45870;42.528;26.740;2023-07-31T06:48:33;4.40;;;3.60;;
60018;SDS011;45870;42.528;26.740;2023-07-31T06:50:59;3.70;;;3.33;;
60018;SDS011;45870;42.528;26.740;2023-07-31T06:53:25;9.02;;;3.72;;
60018;SDS011;45870;42.528;26.740;2023-07-31T06:55:51;4.68;;;3.28;;
60018;SDS011;45870;42.528;26.740;2023-07-31T06:58:17;3.70;;;3.33;;
60018;SDS011;45870;42.528;26.740;2023-07-31T07:00:43;6.30;;;3.72;;
60018;SDS011;45870;42.528;26.740;2023-07-31T07:03:09;7.68;;;4.03;;
60018;SDS011;45870;42.528;26.740;2023-07-31T07:05:41;4.10;;;3.70;;
60018;SDS011;45870;42.528;26.740;2023-07-31T07:08:07;10.52;;;4.20;;
60018;SDS011;45870;42.528;26.740;2023-07-31T07:10:33;4.60;;;3.55;;
60018;SDS011;45870;42.528;26.740;2023-07-31T07:12:58;3.95;;;3.50;;
60018;SDS011;45870;42.528;26.740;2023-07-31T07:15:24;4.63;;;3.60;;
60018;SDS011;45870;42.528;26.740;2023-07-31T07:17:50;6.30;;;3.42;;
60018;SDS011;45870;42.528;26.740;2023-07-31T07:20:16;5.13;;;3.05;;
60018;SDS011;45870;42.528;26.740;2023-07-31T07:22:41;3.90;;;3.50;;
60018;SDS011;45870;42.528;26.740;2023-07-31T07:25:10;6.80;;;3.40;;
60018;SDS011;45870;42.528;26.740;2023-07-31T07:27:35;3.40;;;3.05;;
60018;SDS011;45870;42.528;26.740;2023-07-31T07:30:01;4.57;;;3.63;;
60018;SDS011;45870;42.528;26.740;2023-07-31T07:32:27;5.03;;;3.50;;
60018;SDS011;45870;42.528;26.740;2023-07-31T07:34:53;3.28;;;2.97;;
60018;SDS011;45870;42.528;26.740;2023-07-31T07:37:18;4.95;;;3.28;;
60018;SDS011;45870;42.528;26.740;2023-07-31T07:39:44;5.85;;;3.40;;
60018;SDS011;45870;42.528;26.740;2023-07-31T07:42:12;4.63;;;3.63;;
60018;SDS011;45870;42.528;26.740;2023-07-31T07:44:38;3.83;;;3.25;;
60018;SDS011;45870;42.528;26.740;2023-07-31T07:47:04;5.15;;;3.25;;
60018;SDS011;45870;42.528;26.740;2023-07-31T07:49:32;8.18;;;3.58;;
60018;SDS011;45870;42.528;26.740;2023-07-31T07:51:59;5.25;;;2.88;;
60018;SDS011;45870;42.528;26.740;2023-07-31T07:54:24;4.93;;;2.75;;
60018;SDS011;45870;42.528;26.740;2023-07-31T07:56:50;8.02;;;2.50;;
60018;SDS011;45870;42.528;26.740;2023-07-31T07:59:16;3.75;;;2.28;;
60018;SDS011;45870;42.528;26.740;2023-07-31T08:01:41;4.53;;;2.60;;
60018;SDS011;45870;42.528;26.740;2023-07-31T08:04:07;4.18;;;3.10;;
60018;SDS011;45870;42.528;26.740;2023-07-31T08:06:33;5.22;;;3.17;;
60018;SDS011;45870;42.528;26.740;2023-07-31T08:08:59;6.10;;;3.30;;
60018;SDS011;45870;42.528;26.740;2023-07-31T08:11:30;5.30;;;3.60;;
60018;SDS011;45870;42.528;26.740;2023-07-31T08:13:56;5.03;;;3.50;;
60018;SDS011;45870;42.528;26.740;2023-07-31T08:16:21;6.18;;;3.42;;
60018;SDS011;45870;42.528;26.740;2023-07-31T08:18:47;4.85;;;3.30;;
60018;SDS011;45870;42.528;26.740;2023-07-31T08:21:14;7.03;;;3.85;;
60018;SDS011;45870;42.528;26.740;2023-07-31T08:23:40;5.88;;;3.83;;
60018;SDS011;45870;42.528;26.740;2023-07-31T08:26:06;5.45;;;4.28;;
60018;SDS011;45870;42.528;26.740;2023-07-31T08:28:32;5.40;;;4.47;;
60018;SDS011;45870;42.528;26.740;2023-07-31T08:30:58;7.40;;;5.35;;
60018;SDS011;45870;42.528;26.740;2023-07-31T08:33:23;9.07;;;7.10;;
60018;SDS011;45870;42.528;26.740;2023-07-31T08:35:49;14.20;;;8.68;;
60018;SDS011;45870;42.528;26.740;2023-07-31T08:38:15;11.35;;;9.82;;
60018;SDS011;45870;42.528;26.740;2023-07-31T08:40:41;17.60;;;12.00;;
60018;SDS011;45870;42.528;26.740;2023-07-31T08:43:07;16.02;;;14.30;;
60018;SDS011;45870;42.528;26.740;2023-07-31T08:45:34;20.50;;;14.85;;
60018;SDS011;45870;42.528;26.740;2023-07-31T08:48:00;20.85;;;17.05;;
60018;SDS011;45870;42.528;26.740;2023-07-31T08:50:26;21.73;;;16.50;;
60018;SDS011;45870;42.528;26.740;2023-07-31T08:52:53;18.95;;;16.23;;
60018;SDS011;45870;42.528;26.740;2023-07-31T08:55:19;19.45;;;15.82;;
60018;SDS011;45870;42.528;26.740;2023-07-31T08:57:48;23.80;;;17.55;;
60018;SDS011;45870;42.528;26.740;2023-07-31T09:00:17;24.33;;;18.35;;
60018;SDS011;45870;42.528;26.740;2023-07-31T09:02:54;25.60;;;18.52;;
60018;SDS011;45870;42.528;26.740;2023-07-31T09:05:24;20.10;;;17.00;;
60018;SDS011;45870;42.528;26.740;2023-07-31T09:07:51;21.70;;;17.75;;
60018;SDS011;45870;42.528;26.740;2023-07-31T09:10:18;22.25;;;18.35;;
60018;SDS011;45870;42.528;26.740;2023-07-31T09:12:43;24.30;;;19.92;;
60018;SDS011;45870;42.528;26.740;2023-07-31T09:15:11;24.70;;;20.33;;
60018;SDS011;45870;42.528;26.740;2023-07-31T09:17:36;23.38;;;19.63;;
60018;SDS011;45870;42.528;26.740;2023-07-31T09:20:16;19.65;;;17.33;;
60018;SDS011;45870;42.528;26.740;2023-07-31T09:22:42;20.65;;;18.30;;
60018;SDS011;45870;42.528;26.740;2023-07-31T09:25:17;21.95;;;18.63;;
60018;SDS011;45870;42.528;26.740;2023-07-31T09:30:25;27.38;;;20.00;;
60018;SDS011;45870;42.528;26.740;2023-07-31T09:32:52;25.85;;;20.10;;
60018;SDS011;45870;42.528;26.740;2023-07-31T09:38:00;26.60;;;20.23;;
60018;SDS011;45870;42.528;26.740;2023-07-31T09:40:32;24.27;;;16.40;;
60018;SDS011;45870;42.528;26.740;2023-07-31T09:43:06;19.90;;;14.93;;
60018;SDS011;45870;42.528;26.740;2023-07-31T09:45:34;15.55;;;13.13;;
60018;SDS011;45870;42.528;26.740;2023-07-31T09:48:06;14.77;;;12.48;;
60018;SDS011;45870;42.528;26.740;2023-07-31T09:50:34;16.77;;;11.50;;
60018;SDS011;45870;42.528;26.740;2023-07-31T09:53:03;14.75;;;11.30;;
60018;SDS011;45870;42.528;26.740;2023-07-31T09:55:29;18.17;;;13.48;;
60018;SDS011;45870;42.528;26.740;2023-07-31T09:57:57;14.98;;;12.65;;
60018;SDS011;45870;42.528;26.740;2023-07-31T10:00:23;13.20;;;10.93;;
60018;SDS011;45870;42.528;26.740;2023-07-31T10:02:53;12.35;;;11.15;;
60018;SDS011;45870;42.528;26.740;2023-07-31T10:05:23;13.00;;;11.65;;
60018;SDS011;45870;42.528;26.740;2023-07-31T10:07:53;14.20;;;11.55;;
60018;SDS011;45870;42.528;26.740;2023-07-31T10:10:21;11.50;;;10.30;;
60018;SDS011;45870;42.528;26.740;2023-07-31T10:12:51;12.10;;;9.95;;
60018;SDS011;45870;42.528;26.740;2023-07-31T10:15:18;12.20;;;9.77;;
60018;SDS011;45870;42.528;26.740;2023-07-31T10:17:47;10.70;;;9.52;;
60018;SDS011;45870;42.528;26.740;2023-07-31T10:20:14;11.25;;;10.05;;
60018;SDS011;45870;42.528;26.740;2023-07-31T10:22:42;10.13;;;8.95;;
60018;SDS011;45870;42.528;26.740;2023-07-31T10:25:11;10.02;;;8.75;;
60018;SDS011;45870;42.528;26.740;2023-07-31T10:27:40;9.13;;;8.05;;
60018;SDS011;45870;42.528;26.740;2023-07-31T10:30:11;10.05;;;8.02;;
60018;SDS011;45870;42.528;26.740;2023-07-31T10:32:40;10.10;;;9.05;;
60018;SDS011;45870;42.528;26.740;2023-07-31T10:35:07;9.23;;;8.32;;
60018;SDS011;45870;42.528;26.740;2023-07-31T10:37:38;8.60;;;7.78;;
60018;SDS011;45870;42.528;26.740;2023-07-31T10:40:12;9.87;;;8.37;;
60018;SDS011;45870;42.528;26.740;2023-07-31T10:42:51;10.70;;;8.35;;
60018;SDS011;45870;42.528;26.740;2023-07-31T10:45:24;10.43;;;8.43;;
60018;SDS011;45870;42.528;26.740;2023-07-31T10:48:02;11.10;;;8.07;;
60018;SDS011;45870;42.528;26.740;2023-07-31T10:50:33;8.82;;;7.95;;
60018;SDS011;45870;42.528;26.740;2023-07-31T10:53:03;8.32;;;7.53;;
60018;SDS011;45870;42.528;26.740;2023-07-31T10:58:11;6.70;;;6.10;;
60018;SDS011;45870;42.528;26.740;2023-07-31T11:00:39;9.13;;;7.20;;
60018;SDS011;45870;42.528;26.740;2023-07-31T11:03:07;8.65;;;7.25;;
60018;SDS011;45870;42.528;26.740;2023-07-31T11:10:46;9.15;;;8.25;;
60018;SDS011;45870;42.528;26.740;2023-07-31T11:13:13;8.55;;;7.80;;
60018;SDS011;45870;42.528;26.740;2023-07-31T11:15:39;8.05;;;7.25;;
60018;SDS011;45870;42.528;26.740;2023-07-31T11:18:05;8.02;;;7.20;;
60018;SDS011;45870;42.528;26.740;2023-07-31T11:20:33;9.40;;;7.78;;
60018;SDS011;45870;42.528;26.740;2023-07-31T11:23:05;7.90;;;7.13;;
60018;SDS011;45870;42.528;26.740;2023-07-31T11:25:32;8.77;;;7.88;;
60018;SDS011;45870;42.528;26.740;2023-07-31T11:28:10;7.70;;;7.00;;
60018;SDS011;45870;42.528;26.740;2023-07-31T11:30:38;7.70;;;6.95;;
60018;SDS011;45870;42.528;26.740;2023-07-31T11:33:06;7.80;;;7.00;;
60018;SDS011;45870;42.528;26.740;2023-07-31T11:35:33;8.05;;;7.25;;
60018;SDS011;45870;42.528;26.740;2023-07-31T11:38:01;8.70;;;7.53;;
60018;SDS011;45870;42.528;26.740;2023-07-31T11:40:27;8.45;;;7.50;;
60018;SDS011;45870;42.528;26.740;2023-07-31T11:42:57;7.68;;;6.85;;
60018;SDS011;45870;42.528;26.740;2023-07-31T11:45:25;8.25;;;7.45;;
60018;SDS011;45870;42.528;26.740;2023-07-31T11:47:53;8.15;;;7.35;;
60018;SDS011;45870;42.528;26.740;2023-07-31T11:50:20;8.32;;;7.53;;
60018;SDS011;45870;42.528;26.740;2023-07-31T11:52:46;8.70;;;7.80;;
60018;SDS011;45870;42.528;26.740;2023-07-31T11:55:15;8.90;;;8.02;;
60018;SDS011;45870;42.528;26.740;2023-07-31T11:57:42;8.88;;;8.07;;
60018;SDS011;45870;42.528;26.740;2023-07-31T12:00:11;10.50;;;8.00;;
60018;SDS011;45870;42.528;26.740;2023-07-31T12:02:39;9.13;;;8.10;;
60018;SDS011;45870;42.528;26.740;2023-07-31T12:05:06;8.05;;;7.25;;
60018;SDS011;45870;42.528;26.740;2023-07-31T12:07:43;8.35;;;7.55;;
60018;SDS011;45870;42.528;26.740;2023-07-31T12:10:30;9.20;;;7.80;;
60018;SDS011;45870;42.528;26.740;2023-07-31T12:12:58;7.65;;;6.70;;
60018;SDS011;45870;42.528;26.740;2023-07-31T12:15:36;7.57;;;6.82;;
60018;SDS011;45870;42.528;26.740;2023-07-31T12:18:06;7.35;;;6.50;;
60018;SDS011;45870;42.528;26.740;2023-07-31T12:20:32;6.90;;;6.30;;
60018;SDS011;45870;42.528;26.740;2023-07-31T12:22:59;7.63;;;6.15;;
60018;SDS011;45870;42.528;26.740;2023-07-31T12:25:28;6.47;;;5.88;;
60018;SDS011;45870;42.528;26.740;2023-07-31T12:27:55;6.72;;;6.03;;
60018;SDS011;45870;42.528;26.740;2023-07-31T12:30:28;6.30;;;5.70;;
60018;SDS011;45870;42.528;26.740;2023-07-31T12:32:53;6.97;;;5.63;;
60018;SDS011;45870;42.528;26.740;2023-07-31T12:35:20;5.80;;;5.18;;
60018;SDS011;45870;42.528;26.740;2023-07-31T12:37:46;6.03;;;5.32;;
60018;SDS011;45870;42.528;26.740;2023-07-31T12:40:12;5.35;;;4.85;;
60018;SDS011;45870;42.528;26.740;2023-07-31T12:42:37;5.63;;;4.55;;
60018;SDS011;45870;42.528;26.740;2023-07-31T12:45:03;4.88;;;4.30;;
60018;SDS011;45870;42.528;26.740;2023-07-31T12:47:29;5.25;;;4.75;;
60018;SDS011;45870;42.528;26.740;2023-07-31T12:49:55;4.10;;;3.70;;
60018;SDS011;45870;42.528;26.740;2023-07-31T12:52:21;5.05;;;4.55;;
60018;SDS011;45870;42.528;26.740;2023-07-31T12:54:46;4.90;;;4.40;;
60018;SDS011;45870;42.528;26.740;2023-07-31T12:57:12;6.90;;;4.57;;
60018;SDS011;45870;42.528;26.740;2023-07-31T12:59:37;4.85;;;4.03;;
60018;SDS011;45870;42.528;26.740;2023-07-31T13:02:03;6.30;;;5.47;;
60018;SDS011;45870;42.528;26.740;2023-07-31T13:04:29;4.55;;;4.15;;
60018;SDS011;45870;42.528;26.740;2023-07-31T13:06:54;5.88;;;4.60;;
60018;SDS011;45870;42.528;26.740;2023-07-31T13:09:20;5.10;;;4.38;;
60018;SDS011;45870;42.528;26.740;2023-07-31T13:11:46;5.70;;;4.70;;
60018;SDS011;45870;42.528;26.740;2023-07-31T13:14:11;5.00;;;4.50;;
60018;SDS011;45870;42.528;26.740;2023-07-31T13:16:37;4.97;;;4.47;;
60018;SDS011;45870;42.528;26.740;2023-07-31T13:19:03;4.85;;;4.15;;
60018;SDS011;45870;42.528;26.740;2023-07-31T13:21:29;5.10;;;4.60;;
60018;SDS011;45870;42.528;26.740;2023-07-31T13:23:55;4.47;;;4.07;;
60018;SDS011;45870;42.528;26.740;2023-07-31T13:26:23;4.95;;;4.40;;
60018;SDS011;45870;42.528;26.740;2023-07-31T13:28:48;4.97;;;4.47;;
60018;SDS011;45870;42.528;26.740;2023-07-31T13:31:14;4.88;;;4.47;;
60018;SDS011;45870;42.528;26.740;2023-07-31T13:33:40;4.75;;;4.30;;
60018;SDS011;45870;42.528;26.740;2023-07-31T13:36:05;6.07;;;4.50;;
60018;SDS011;45870;42.528;26.740;2023-07-31T13:38:31;7.05;;;4.20;;
60018;SDS011;45870;42.528;26.740;2023-07-31T13:40:57;4.63;;;4.22;;
60018;SDS011;45870;42.528;26.740;2023-07-31T13:43:24;6.15;;;4.28;;
60018;SDS011;45870;42.528;26.740;2023-07-31T13:45:49;5.57;;;4.60;;
60018;SDS011;45870;42.528;26.740;2023-07-31T13:48:15;5.40;;;4.90;;
60018;SDS011;45870;42.528;26.740;2023-07-31T13:50:40;7.55;;;5.03;;
60018;SDS011;45870;42.528;26.740;2023-07-31T13:53:06;5.15;;;4.60;;
60018;SDS011;45870;42.528;26.740;2023-07-31T13:55:32;5.40;;;4.90;;
60018;SDS011;45870;42.528;26.740;2023-07-31T13:57:57;5.10;;;4.57;;
60018;SDS011;45870;42.528;26.740;2023-07-31T14:00:23;5.07;;;4.13;;
60018;SDS011;45870;42.528;26.740;2023-07-31T14:02:48;5.78;;;4.53;;
60018;SDS011;45870;42.528;26.740;2023-07-31T14:05:14;5.00;;;4.60;;
60018;SDS011;45870;42.528;26.740;2023-07-31T14:07:40;5.80;;;4.80;;
60018;SDS011;45870;42.528;26.740;2023-07-31T14:10:05;4.78;;;4.38;;
60018;SDS011;45870;42.528;26.740;2023-07-31T14:12:31;5.57;;;4.72;;
60018;SDS011;45870;42.528;26.740;2023-07-31T14:14:58;5.13;;;4.60;;
60018;SDS011;45870;42.528;26.740;2023-07-31T14:17:23;5.30;;;4.80;;
60018;SDS011;45870;42.528;26.740;2023-07-31T14:19:49;5.10;;;4.60;;
60018;SDS011;45870;42.528;26.740;2023-07-31T14:22:15;6.28;;;4.80;;
60018;SDS011;45870;42.528;26.740;2023-07-31T14:24:51;5.05;;;4.30;;
60018;SDS011;45870;42.528;26.740;2023-07-31T14:27:17;4.97;;;4.47;;
60018;SDS011;45870;42.528;26.740;2023-07-31T14:29:43;5.38;;;4.88;;
60018;SDS011;45870;42.528;26.740;2023-07-31T14:32:09;6.68;;;4.75;;
60018;SDS011;45870;42.528;26.740;2023-07-31T14:34:34;6.53;;;4.60;;
60018;SDS011;45870;42.528;26.740;2023-07-31T14:37:00;5.15;;;4.40;;
60018;SDS011;45870;42.528;26.740;2023-07-31T14:39:25;4.97;;;4.47;;
60018;SDS011;45870;42.528;26.740;2023-07-31T14:41:51;5.18;;;4.68;;
60018;SDS011;45870;42.528;26.740;2023-07-31T14:44:17;5.30;;;4.80;;
60018;SDS011;45870;42.528;26.740;2023-07-31T14:46:42;5.13;;;4.63;;